Hularin, Russia
Current Conditions -  °F | °C
As of 6:30 PM on Sunday 21 Dec 2014 (Local Time) from UHHH Reporting Station
Clear Clear  
Wind Chill: -35°   Ceiling: Unl
Heat Index: -15°   Visibility: 6mi
Dew Point: -24°   Wind: 11mph
Humidity: 64%   Direction: 230°SW
Pressure: 29.71"   Gusts: NA
Location:  51.42°N, 135.08°E
Report Text: UHHH 210830Z 23005MPS CAVOK M26/M31 Q1006 NOSIG RMK QFE748/09982385//45
Loading
Personal Weather Stations






























Interactive Weather Map New forecast layout! Learn more

10-Day Weather Forecast

Advertisements
Track Severe Weather on mobile